Time;durP1;ratioP1;P1;durP2;ratioP2;P2;SDS_P1;SDS_P2;PMS_P1;PMS_P2;Temp;Humidity;BMP_temperature;BMP_pressure;BME280_temperature;BME280_humidity;BME280_pressure;Samples;Min_cycle;Max_cycle;Signal;HPM_P1;HPM_P2
2023/04/27 00:01:31;;;;;;;10.40;4.50;;;3.80;99.90;;;;;;4161775;28;20361;-66
2023/04/27 00:03:32;;;;;;;8.80;4.07;;;3.80;99.90;;;;;;4163807;28;20731;-67
2023/04/27 00:05:38;;;;;;;7.67;3.90;;;3.80;99.90;;;;;;4162635;28;20690;-65
2023/04/27 00:07:39;;;;;;;7.07;3.67;;;3.70;99.90;;;;;;4163690;28;20262;-65
2023/04/27 00:09:40;;;;;;;8.53;3.53;;;3.70;99.90;;;;;;4162360;28;20654;-69
2023/04/27 00:11:41;;;;;;;7.20;3.50;;;3.70;99.90;;;;;;4163735;28;20262;-66
2023/04/27 00:13:42;;;;;;;13.13;4.03;;;3.70;99.90;;;;;;4162746;28;20377;-65
2023/04/27 00:15:44;;;;;;;7.13;3.17;;;3.60;99.90;;;;;;4163716;28;20321;-70
2023/04/27 00:17:45;;;;;;;8.20;3.83;;;3.60;99.90;;;;;;4160062;28;20345;-65
2023/04/27 00:19:47;;;;;;;5.10;3.07;;;3.70;99.90;;;;;;4152440;28;20275;-65
2023/04/27 00:21:48;;;;;;;7.37;3.33;;;3.60;99.90;;;;;;4147954;28;20299;-69
2023/04/27 00:23:49;;;;;;;4.20;3.07;;;3.60;99.90;;;;;;4146843;28;20809;-70
2023/04/27 00:25:50;;;;;;;8.10;3.40;;;3.60;99.90;;;;;;4129042;28;20256;-64
2023/04/27 00:27:51;;;;;;;10.43;4.03;;;3.60;99.90;;;;;;4147068;28;20320;-67
2023/04/27 00:29:53;;;;;;;8.37;3.30;;;3.50;99.90;;;;;;4146584;28;20377;-65
2023/04/27 00:31:54;;;;;;;6.13;3.57;;;3.50;99.90;;;;;;4145560;28;20280;-73
2023/04/27 00:33:55;;;;;;;10.83;3.20;;;3.50;99.90;;;;;;4147111;28;20305;-76
2023/04/27 00:36:00;;;;;;;10.23;3.63;;;3.50;99.90;;;;;;4145804;28;20302;-67
2023/04/27 00:38:01;;;;;;;5.77;3.27;;;3.50;99.90;;;;;;4128803;28;20268;-71
2023/04/27 00:40:05;;;;;;;7.67;3.23;;;3.50;99.90;;;;;;4127791;28;20327;-70
2023/04/27 00:42:10;;;;;;;9.23;4.00;;;3.50;99.90;;;;;;4146822;28;20752;-64
2023/04/27 00:44:11;;;;;;;6.70;3.53;;;3.40;99.90;;;;;;4145603;28;20672;-69
2023/04/27 00:46:13;;;;;;;5.53;3.43;;;3.40;99.90;;;;;;4146789;28;20691;-70
2023/04/27 00:48:14;;;;;;;7.30;3.40;;;3.40;99.90;;;;;;4145611;28;20318;-67
2023/04/27 00:50:19;;;;;;;4.57;3.00;;;3.40;99.90;;;;;;4146591;28;20330;-64
2023/04/27 00:52:20;;;;;;;8.43;4.17;;;3.40;99.90;;;;;;4152700;28;20663;-69
2023/04/27 00:54:22;;;;;;;6.20;3.20;;;3.40;99.90;;;;;;4153593;28;20876;-68
2023/04/27 00:56:23;;;;;;;15.00;3.83;;;3.40;99.90;;;;;;4145794;28;20306;-65
2023/04/27 00:58:24;;;;;;;7.03;3.30;;;3.40;99.90;;;;;;4145885;28;20267;-70
2023/04/27 01:00:26;;;;;;;7.50;3.80;;;3.40;99.90;;;;;;4146240;28;20313;-68
2023/04/27 01:02:28;;;;;;;5.17;3.20;;;3.40;99.90;;;;;;4145244;28;20283;-73
2023/04/27 01:04:30;;;;;;;6.00;3.33;;;3.30;99.90;;;;;;4146535;28;20330;-68
2023/04/27 01:06:32;;;;;;;6.00;3.80;;;3.30;99.90;;;;;;4144944;28;20298;-68
2023/04/27 01:08:33;;;;;;;7.23;4.10;;;3.30;99.90;;;;;;4157228;28;20356;-65
2023/04/27 01:10:36;;;;;;;7.67;4.07;;;3.30;99.90;;;;;;4161445;28;20377;-64
2023/04/27 01:12:37;;;;;;;7.10;3.37;;;3.30;99.90;;;;;;4162468;28;20271;-68
2023/04/27 01:14:38;;;;;;;10.37;4.17;;;3.20;99.90;;;;;;4143494;28;20288;-66
2023/04/27 01:16:39;;;;;;;8.33;3.50;;;3.20;99.90;;;;;;4161780;28;20380;-67
2023/04/27 01:18:40;;;;;;;7.60;3.47;;;3.20;99.90;;;;;;4161014;28;20266;-69
2023/04/27 01:20:42;;;;;;;9.77;4.40;;;3.20;99.90;;;;;;4158262;28;20806;-65
2023/04/27 01:22:43;;;;;;;6.30;3.90;;;3.20;99.90;;;;;;4146074;28;20303;-70
2023/04/27 01:24:44;;;;;;;6.47;3.30;;;3.20;99.90;;;;;;4148873;28;20590;-67
2023/04/27 01:26:46;;;;;;;5.87;4.23;;;3.10;99.90;;;;;;4158248;28;20254;-65
2023/04/27 01:28:47;;;;;;;8.87;4.87;;;3.10;99.90;;;;;;4161950;28;20259;-66
2023/04/27 01:30:48;;;;;;;6.63;3.30;;;3.10;99.90;;;;;;4161382;28;20271;-69
2023/04/27 01:32:49;;;;;;;6.53;3.57;;;3.10;99.90;;;;;;4160574;28;20678;-68
2023/04/27 01:34:51;;;;;;;8.13;3.57;;;3.10;99.90;;;;;;4161451;28;20271;-68
2023/04/27 01:36:52;;;;;;;8.63;3.90;;;3.10;99.90;;;;;;4161158;28;20258;-67
2023/04/27 01:38:53;;;;;;;9.27;4.47;;;3.10;99.90;;;;;;4162377;28;20267;-64
2023/04/27 01:41:00;;;;;;;9.17;4.00;;;3.10;99.90;;;;;;4160871;28;20751;-66
2023/04/27 01:43:02;;;;;;;7.77;3.80;;;3.10;99.90;;;;;;4162070;28;20278;-64
2023/04/27 01:45:03;;;;;;;7.93;3.97;;;3.10;99.90;;;;;;4160994;28;20282;-66
2023/04/27 01:47:05;;;;;;;12.00;4.20;;;3.00;99.90;;;;;;4161858;28;20279;-63
2023/04/27 01:49:06;;;;;;;8.13;3.53;;;3.00;99.90;;;;;;4145385;28;20695;-65
2023/04/27 01:51:07;;;;;;;7.00;3.37;;;3.00;99.90;;;;;;4145451;28;20275;-67
2023/04/27 01:53:08;;;;;;;8.83;4.00;;;3.00;99.90;;;;;;4160228;28;20325;-65
2023/04/27 01:55:10;;;;;;;9.63;3.70;;;3.00;99.90;;;;;;4143995;28;20323;-68
2023/04/27 01:57:13;;;;;;;7.17;3.47;;;3.00;99.90;;;;;;4161138;28;20317;-65
2023/04/27 01:59:14;;;;;;;6.33;3.50;;;3.00;99.90;;;;;;4142866;28;20688;-73
2023/04/27 02:01:15;;;;;;;5.60;3.40;;;3.00;99.90;;;;;;4144038;28;20276;-65
2023/04/27 02:03:16;;;;;;;4.13;2.83;;;2.90;99.90;;;;;;4145004;28;20267;-65
2023/04/27 02:05:18;;;;;;;5.30;3.30;;;3.00;99.90;;;;;;4145331;28;20271;-65
2023/04/27 02:07:19;;;;;;;5.07;2.67;;;3.00;99.90;;;;;;4144535;28;20794;-67
2023/04/27 02:09:20;;;;;;;11.17;4.57;;;3.00;99.90;;;;;;4145629;28;20290;-71
2023/04/27 02:11:21;;;;;;;5.83;3.30;;;3.00;99.90;;;;;;4144450;28;20396;-66
2023/04/27 02:13:22;;;;;;;4.37;2.53;;;3.00;99.90;;;;;;4145198;28;20675;-65
2023/04/27 02:15:23;;;;;;;8.80;3.50;;;3.00;99.90;;;;;;4143820;28;20329;-63
2023/04/27 02:17:24;;;;;;;7.07;3.80;;;3.00;99.90;;;;;;4145350;28;20310;-64
2023/04/27 02:19:26;;;;;;;4.37;2.67;;;3.00;99.90;;;;;;4127664;28;20272;-67
2023/04/27 02:21:27;;;;;;;5.47;2.37;;;3.10;99.90;;;;;;4145952;28;20678;-73
2023/04/27 02:23:28;;;;;;;14.87;2.67;;;3.10;99.90;;;;;;4160673;28;20306;-65
2023/04/27 02:25:29;;;;;;;6.00;2.97;;;3.10;99.90;;;;;;4160535;28;20321;-68
2023/04/27 02:27:30;;;;;;;7.40;3.53;;;3.20;99.90;;;;;;4157388;28;20321;-66
2023/04/27 02:29:31;;;;;;;8.00;2.80;;;3.20;99.90;;;;;;4159015;28;20278;-69
2023/04/27 02:31:32;;;;;;;8.03;3.13;;;3.10;99.90;;;;;;4160920;28;20634;-77
2023/04/27 02:33:34;;;;;;;7.17;2.93;;;3.20;99.90;;;;;;4159972;28;20805;-65
2023/04/27 02:35:35;;;;;;;6.23;2.60;;;3.20;99.90;;;;;;4161319;28;20821;-77
2023/04/27 02:37:36;;;;;;;6.50;2.77;;;3.20;99.90;;;;;;4159960;28;20263;-70
2023/04/27 02:39:37;;;;;;;5.40;3.10;;;3.20;99.90;;;;;;4161612;28;20317;-65
2023/04/27 02:41:38;;;;;;;4.93;2.93;;;3.20;99.90;;;;;;4160344;28;20329;-69
2023/04/27 02:43:39;;;;;;;7.53;3.27;;;3.20;99.90;;;;;;4161610;28;20263;-72
2023/04/27 02:45:40;;;;;;;4.30;3.00;;;3.10;99.90;;;;;;4158405;28;20258;-69
2023/04/27 02:47:41;;;;;;;6.40;2.80;;;3.10;99.90;;;;;;4145077;28;20329;-66
2023/04/27 02:49:43;;;;;;;8.23;3.10;;;3.10;99.90;;;;;;4144326;28;20275;-72
2023/04/27 02:51:44;;;;;;;7.23;3.03;;;3.10;99.90;;;;;;4144972;28;20271;-75
2023/04/27 02:53:45;;;;;;;5.47;2.63;;;3.10;99.90;;;;;;4143419;28;20271;-72
2023/04/27 02:55:48;;;;;;;6.37;3.07;;;3.10;99.90;;;;;;4145685;28;20271;-76
2023/04/27 02:57:49;;;;;;;7.83;2.63;;;3.10;99.90;;;;;;4144280;28;20282;-73
2023/04/27 02:59:50;;;;;;;5.57;2.67;;;3.10;99.90;;;;;;4126975;28;20692;-68
2023/04/27 03:01:51;;;;;;;10.27;3.10;;;3.00;99.90;;;;;;4159039;28;20274;-74
2023/04/27 03:03:52;;;;;;;5.50;2.73;;;3.00;99.90;;;;;;4163690;28;20770;-72
2023/04/27 03:05:53;;;;;;;6.53;2.83;;;3.00;99.90;;;;;;4164465;28;20263;-74
2023/04/27 03:07:55;;;;;;;6.40;2.90;;;3.00;99.90;;;;;;4163490;28;20251;-69
2023/04/27 03:09:56;;;;;;;6.17;2.60;;;3.00;99.90;;;;;;4151906;28;20787;-64
2023/04/27 03:11:57;;;;;;;6.27;2.73;;;3.00;99.90;;;;;;4153131;28;20278;-67
2023/04/27 03:13:58;;;;;;;5.60;2.60;;;3.00;99.90;;;;;;4164653;28;20766;-66
2023/04/27 03:15:59;;;;;;;10.30;2.53;;;3.00;99.90;;;;;;4162459;28;20325;-65
2023/04/27 03:18:00;;;;;;;9.07;2.77;;;3.00;99.90;;;;;;4147912;28;20287;-67
2023/04/27 03:20:03;;;;;;;10.07;3.57;;;3.00;99.90;;;;;;4146586;28;20283;-69
2023/04/27 03:22:06;;;;;;;5.00;2.80;;;3.00;99.90;;;;;;4152720;28;20287;-70
2023/04/27 03:24:07;;;;;;;6.03;2.90;;;3.00;99.90;;;;;;4146885;28;20341;-67
2023/04/27 03:26:10;;;;;;;6.37;2.97;;;3.00;99.90;;;;;;4147990;28;21295;-73
2023/04/27 03:28:11;;;;;;;7.90;2.87;;;3.00;99.90;;;;;;4146848;28;20367;-68
2023/04/27 03:30:12;;;;;;;10.83;2.70;;;3.10;99.90;;;;;;4151666;28;20275;-64
2023/04/27 03:32:13;;;;;;;4.97;2.63;;;3.10;99.90;;;;;;4157337;28;20309;-74
2023/04/27 03:34:15;;;;;;;5.23;2.73;;;3.20;99.90;;;;;;4162143;28;20317;-72
2023/04/27 03:36:16;;;;;;;5.80;3.43;;;3.30;99.90;;;;;;4146932;28;20840;-71
2023/04/27 03:38:17;;;;;;;6.70;3.00;;;3.50;99.90;;;;;;4154841;28;20336;-79
2023/04/27 03:40:19;;;;;;;5.73;3.20;;;3.80;99.90;;;;;;4163722;28;20267;-71
2023/04/27 03:42:20;;;;;;;6.13;2.57;;;4.00;99.90;;;;;;4153339;28;20326;-73
2023/04/27 03:44:21;;;;;;;5.37;2.80;;;4.30;99.90;;;;;;4156623;28;20302;-66
2023/04/27 03:46:22;;;;;;;6.73;2.50;;;4.60;99.90;;;;;;4145164;28;20710;-69
2023/04/27 03:48:23;;;;;;;7.33;2.40;;;4.90;99.90;;;;;;4136845;28;20264;-65
2023/04/27 03:50:24;;;;;;;5.20;2.90;;;5.20;99.90;;;;;;4160657;28;20780;-65
2023/04/27 03:52:26;;;;;;;8.90;2.93;;;5.40;99.90;;;;;;4159897;28;20271;-66
2023/04/27 03:54:27;;;;;;;7.20;3.07;;;5.80;99.90;;;;;;4162233;28;20694;-66
2023/04/27 03:56:28;;;;;;;9.10;2.43;;;6.20;99.90;;;;;;4164067;28;20312;-64
2023/04/27 03:58:29;;;;;;;4.20;2.63;;;6.40;99.90;;;;;;4157826;28;20766;-68
2023/04/27 04:00:30;;;;;;;5.80;2.60;;;6.80;99.90;;;;;;4159515;28;20337;-63
2023/04/27 04:02:32;;;;;;;7.17;2.67;;;7.10;99.90;;;;;;4146131;28;20076;-68
2023/04/27 04:04:33;;;;;;;5.63;2.27;;;7.30;99.90;;;;;;4147721;28;20042;-67
2023/04/27 04:06:35;;;;;;;5.93;2.60;;;7.60;99.90;;;;;;4160331;28;20022;-63
2023/04/27 04:08:36;;;;;;;6.43;2.00;;;7.90;99.90;;;;;;4161666;28;20041;-68
2023/04/27 04:10:37;;;;;;;5.47;2.60;;;8.10;99.90;;;;;;4162088;28;20038;-64
2023/04/27 04:12:39;;;;;;;4.10;2.47;;;8.30;99.90;;;;;;4161182;28;20047;-66
2023/04/27 04:14:41;;;;;;;6.27;2.30;;;8.50;99.90;;;;;;4161071;28;20029;-61
2023/04/27 04:16:42;;;;;;;6.13;2.73;;;8.70;99.90;;;;;;4156435;28;20105;-62
2023/04/27 04:18:43;;;;;;;8.03;2.30;;;8.90;99.90;;;;;;4148834;28;20038;-63
2023/04/27 04:20:45;;;;;;;5.77;2.93;;;9.10;99.90;;;;;;4145701;28;20042;-65
2023/04/27 04:22:46;;;;;;;5.67;2.53;;;9.40;99.90;;;;;;4163203;28;20091;-64
2023/04/27 04:24:47;;;;;;;10.10;2.40;;;9.80;99.90;;;;;;4162042;28;20087;-62
2023/04/27 04:26:48;;;;;;;6.63;2.13;;;9.80;99.90;;;;;;4163462;28;20091;-63
2023/04/27 04:28:49;;;;;;;3.93;2.30;;;9.70;99.90;;;;;;4157946;28;20076;-63
2023/04/27 04:30:51;;;;;;;8.50;2.53;;;9.40;99.90;;;;;;4149955;28;20080;-70
2023/04/27 04:32:52;;;;;;;5.17;2.30;;;9.50;99.90;;;;;;4156399;28;20037;-68
2023/04/27 04:34:53;;;;;;;7.70;2.60;;;9.50;99.90;;;;;;4158735;28;20053;-62
2023/04/27 04:36:56;;;;;;;4.57;2.63;;;9.80;99.90;;;;;;4156363;28;20486;-70
2023/04/27 04:38:58;;;;;;;5.87;1.80;;;9.70;99.90;;;;;;4161766;28;20120;-62
2023/04/27 04:41:01;;;;;;;4.97;2.37;;;9.70;99.90;;;;;;4162458;28;20404;-65
2023/04/27 04:43:02;;;;;;;6.93;2.43;;;10.20;99.90;;;;;;4159571;28;20103;-62
2023/04/27 04:45:04;;;;;;;5.63;2.10;;;10.30;99.90;;;;;;4160569;28;20491;-67
2023/04/27 04:47:05;;;;;;;3.10;2.13;;;10.40;99.90;;;;;;4161728;28;20018;-66
2023/04/27 04:49:06;;;;;;;2.60;1.80;;;10.80;99.90;;;;;;4162778;28;20144;-68
2023/04/27 04:51:07;;;;;;;3.60;2.10;;;11.30;99.90;;;;;;4161716;28;20033;-76
2023/04/27 04:53:08;;;;;;;5.10;2.23;;;11.70;99.90;;;;;;4162492;28;20034;-67
2023/04/27 04:55:10;;;;;;;5.07;1.80;;;12.20;99.90;;;;;;4161400;28;20095;-68
2023/04/27 04:57:11;;;;;;;6.93;2.50;;;12.60;99.90;;;;;;4162776;28;20095;-65
2023/04/27 04:59:12;;;;;;;2.60;2.00;;;12.80;99.80;;;;;;4161581;28;20379;-68
2023/04/27 05:01:13;;;;;;;6.17;2.67;;;13.00;99.30;;;;;;4162340;28;20080;-68
2023/04/27 05:03:15;;;;;;;3.43;2.10;;;12.80;97.80;;;;;;4161324;28;20033;-74
2023/04/27 05:05:16;;;;;;;7.87;2.30;;;12.30;98.40;;;;;;4144379;28;20487;-69
2023/04/27 05:07:17;;;;;;;4.30;2.10;;;12.20;98.70;;;;;;4143521;28;20045;-66
2023/04/27 05:09:18;;;;;;;4.53;2.07;;;12.20;97.90;;;;;;4161588;28;20480;-68
2023/04/27 05:11:21;;;;;;;6.13;2.10;;;11.90;98.10;;;;;;4144029;28;20096;-70
2023/04/27 05:13:23;;;;;;;3.57;2.10;;;11.90;98.60;;;;;;4161250;28;20068;-78
2023/04/27 05:15:25;;;;;;;6.17;1.63;;;11.80;98.00;;;;;;4161996;28;20051;-65
2023/04/27 05:17:26;;;;;;;3.53;1.80;;;11.80;97.80;;;;;;4160702;28;20045;-66
2023/04/27 05:19:30;;;;;;;12.47;4.30;;;12.40;97.60;;;;;;4162316;28;20033;-68
2023/04/27 05:21:32;;;;;;;6.97;3.77;;;12.80;96.60;;;;;;4158293;28;20095;-72
2023/04/27 05:23:33;;;;;;;7.93;2.90;;;12.70;96.20;;;;;;4149520;28;20518;-71
2023/04/27 05:25:42;;;;;;;5.00;2.20;;;13.10;96.20;;;;;;4153765;28;20036;-67
2023/04/27 05:27:43;;;;;;;5.47;1.77;;;13.30;95.40;;;;;;4166801;28;20481;-68
2023/04/27 05:29:44;;;;;;;5.33;2.07;;;13.40;95.10;;;;;;4160700;28;20034;-72
2023/04/27 05:31:47;;;;;;;4.23;2.37;;;14.00;95.00;;;;;;4140449;28;20057;-63
2023/04/27 05:33:48;;;;;;;6.90;2.07;;;14.20;94.00;;;;;;4134124;28;20421;-62
2023/04/27 05:35:49;;;;;;;6.40;1.27;;;13.90;93.10;;;;;;4146273;28;20030;-57
2023/04/27 05:37:51;;;;;;;4.17;1.13;;;13.40;92.40;;;;;;4144595;28;20041;-65
2023/04/27 05:39:52;;;;;;;10.37;1.70;;;13.30;92.70;;;;;;4152718;28;20034;-63
2023/04/27 05:41:53;;;;;;;3.60;1.47;;;13.10;92.20;;;;;;4146812;28;20088;-60
2023/04/27 05:43:54;;;;;;;7.40;1.83;;;12.80;92.30;;;;;;4145610;28;20064;-63
2023/04/27 05:45:55;;;;;;;5.30;1.03;;;12.90;92.30;;;;;;4150133;28;20056;-62
2023/04/27 05:47:56;;;;;;;5.53;1.63;;;12.90;92.10;;;;;;4159914;28;20091;-62
2023/04/27 05:49:57;;;;;;;3.07;1.07;;;13.10;91.70;;;;;;4161826;28;20041;-59
2023/04/27 05:51:59;;;;;;;3.40;1.37;;;13.20;91.40;;;;;;4168587;28;20032;-72
2023/04/27 05:54:00;;;;;;;6.13;1.53;;;13.10;90.90;;;;;;4170155;28;20118;-62
2023/04/27 05:56:03;;;;;;;5.17;1.30;;;13.30;90.90;;;;;;4159642;28;20071;-62
2023/04/27 05:58:04;;;;;;;5.00;1.40;;;13.40;90.60;;;;;;4161789;28;20037;-62
2023/04/27 06:00:09;;;;;;;2.97;1.30;;;13.50;90.20;;;;;;4155901;28;20376;-61
2023/04/27 06:02:10;;;;;;;3.40;1.27;;;13.20;90.20;;;;;;4152210;28;20089;-61
2023/04/27 06:04:11;;;;;;;3.87;1.93;;;13.00;90.00;;;;;;4144458;28;20030;-62
2023/04/27 06:06:12;;;;;;;6.87;1.70;;;12.90;90.00;;;;;;4146336;28;20422;-61
2023/04/27 06:08:14;;;;;;;7.13;1.70;;;12.70;90.00;;;;;;4143900;28;20137;-64
2023/04/27 06:10:15;;;;;;;7.37;1.90;;;12.60;90.20;;;;;;4144657;28;20104;-58
2023/04/27 06:12:16;;;;;;;6.73;1.37;;;12.70;89.60;;;;;;4145484;28;20026;-61
2023/04/27 06:14:17;;;;;;;5.20;1.57;;;12.60;89.50;;;;;;4145012;28;20030;-60
2023/04/27 06:16:20;;;;;;;2.00;1.10;;;12.40;89.10;;;;;;4145069;28;20025;-67
2023/04/27 06:18:21;;;;;;;8.17;1.70;;;12.20;89.80;;;;;;4156603;28;20543;-76
2023/04/27 06:20:22;;;;;;;5.47;1.83;;;12.10;90.00;;;;;;4161066;28;20029;-61
2023/04/27 06:22:23;;;;;;;5.30;1.43;;;12.10;89.50;;;;;;4158372;28;20569;-69
2023/04/27 06:24:24;;;;;;;5.30;1.40;;;11.90;89.90;;;;;;4153254;28;20116;-69
2023/04/27 06:26:27;;;;;;;8.03;1.30;;;12.10;90.00;;;;;;4146887;28;20033;-68
2023/04/27 06:28:28;;;;;;;3.57;1.53;;;12.10;89.90;;;;;;4150858;28;20087;-75
2023/04/27 06:30:29;;;;;;;7.07;1.57;;;12.30;89.80;;;;;;4144400;28;21026;-62
2023/04/27 06:32:30;;;;;;;4.33;1.40;;;12.40;89.20;;;;;;4144639;28;20092;-59
2023/04/27 06:34:33;;;;;;;5.33;1.63;;;12.70;89.00;;;;;;4143907;28;20093;-63
2023/04/27 06:36:34;;;;;;;2.13;1.23;;;12.60;88.10;;;;;;4146450;28;20359;-62
2023/04/27 06:38:35;;;;;;;4.17;1.53;;;12.40;87.80;;;;;;4146915;28;20030;-61
2023/04/27 06:40:36;;;;;;;4.40;1.50;;;12.20;87.40;;;;;;4148658;28;20037;-62
2023/04/27 06:42:37;;;;;;;4.77;1.37;;;12.10;87.70;;;;;;4147195;28;20592;-61
2023/04/27 06:44:38;;;;;;;7.27;1.70;;;12.20;87.80;;;;;;4147821;28;20065;-62
2023/04/27 06:46:39;;;;;;;6.53;1.70;;;12.10;87.80;;;;;;4150684;28;20929;-62
2023/04/27 06:48:41;;;;;;;6.77;1.93;;;12.10;87.50;;;;;;4147835;28;20072;-72
2023/04/27 06:50:42;;;;;;;8.43;1.63;;;12.20;87.80;;;;;;4147542;28;20046;-62
2023/04/27 06:52:44;;;;;;;3.57;1.23;;;12.30;88.40;;;;;;4146748;28;20034;-63
2023/04/27 06:54:45;;;;;;;3.23;1.30;;;12.30;87.90;;;;;;4164323;28;20026;-63
2023/04/27 06:56:46;;;;;;;3.93;1.40;;;12.10;87.30;;;;;;4159322;28;20058;-62
2023/04/27 06:58:47;;;;;;;4.00;1.67;;;12.00;88.60;;;;;;4147660;28;20383;-60
2023/04/27 07:00:48;;;;;;;5.60;1.77;;;11.90;88.60;;;;;;4157680;28;20087;-61
2023/04/27 07:02:50;;;;;;;4.73;1.33;;;11.90;88.80;;;;;;4157254;28;20057;-67
2023/04/27 07:04:51;;;;;;;6.80;1.57;;;11.90;88.50;;;;;;4162754;28;20052;-61
2023/04/27 07:06:52;;;;;;;9.40;1.27;;;12.00;89.20;;;;;;4146253;28;20034;-61
2023/04/27 07:08:53;;;;;;;4.63;1.47;;;12.10;88.50;;;;;;4162744;28;20068;-61
2023/04/27 07:10:55;;;;;;;4.67;1.43;;;12.10;88.50;;;;;;4154512;28;20018;-62
2023/04/27 07:12:56;;;;;;;6.97;1.70;;;12.30;88.50;;;;;;4145812;28;20045;-63
2023/04/27 07:14:57;;;;;;;4.73;1.30;;;12.20;87.90;;;;;;4146747;28;20046;-63
2023/04/27 07:16:58;;;;;;;6.70;1.73;;;12.40;88.10;;;;;;4145544;28;20049;-63
2023/04/27 07:19:00;;;;;;;5.10;1.50;;;12.40;87.30;;;;;;4145677;28;20128;-65
2023/04/27 07:21:01;;;;;;;7.23;1.57;;;12.20;87.40;;;;;;4162127;28;20071;-63
2023/04/27 07:23:02;;;;;;;5.53;1.67;;;12.20;87.60;;;;;;4162475;28;20041;-62
2023/04/27 07:25:04;;;;;;;5.23;1.83;;;11.90;87.30;;;;;;4148254;28;20104;-65
2023/04/27 07:27:06;;;;;;;5.63;1.20;;;11.60;88.40;;;;;;4146682;28;20034;-68
2023/04/27 07:29:08;;;;;;;6.43;1.33;;;11.70;88.30;;;;;;4151911;28;20021;-60
2023/04/27 07:31:09;;;;;;;3.20;1.33;;;11.70;87.40;;;;;;4151427;28;20474;-60
2023/04/27 07:33:10;;;;;;;4.50;1.30;;;11.50;87.00;;;;;;4155012;28;20037;-74
2023/04/27 07:35:12;;;;;;;8.17;1.10;;;11.40;87.50;;;;;;4149267;28;20103;-72
2023/04/27 07:37:14;;;;;;;5.97;2.20;;;11.40;87.10;;;;;;4162897;28;20068;-74
2023/04/27 07:39:16;;;;;;;5.43;1.60;;;11.50;87.60;;;;;;4161838;28;20091;-70
2023/04/27 07:41:17;;;;;;;3.37;1.47;;;11.70;87.10;;;;;;4163606;28;20076;-74
2023/04/27 07:43:19;;;;;;;7.60;2.07;;;11.90;86.30;;;;;;4162567;28;20567;-66
2023/04/27 07:45:21;;;;;;;4.97;1.83;;;11.90;86.10;;;;;;4162533;28;20467;-68
2023/04/27 07:47:23;;;;;;;5.50;1.30;;;11.70;86.00;;;;;;4149471;28;20037;-72
2023/04/27 07:49:25;;;;;;;4.37;1.93;;;11.70;84.00;;;;;;4146178;28;20080;-63
2023/04/27 07:51:27;;;;;;;9.20;1.93;;;11.40;85.80;;;;;;4146876;28;20045;-72
2023/04/27 07:53:28;;;;;;;10.53;2.30;;;11.50;85.60;;;;;;4146410;28;20437;-62
2023/04/27 07:55:29;;;;;;;18.57;2.90;;;11.40;85.30;;;;;;4146993;28;20034;-62
2023/04/27 07:57:30;;;;;;;4.53;1.43;;;11.30;85.40;;;;;;4146958;28;20042;-68
2023/04/27 07:59:32;;;;;;;4.70;2.17;;;11.00;85.00;;;;;;4148068;28;20453;-77
2023/04/27 08:01:33;;;;;;;7.73;1.97;;;10.70;84.90;;;;;;4152561;28;20394;-61
2023/04/27 08:03:34;;;;;;;5.83;1.73;;;10.80;85.30;;;;;;4160358;28;20049;-69
2023/04/27 08:05:35;;;;;;;3.07;1.30;;;11.10;85.60;;;;;;4145808;28;20092;-71
2023/04/27 08:07:36;;;;;;;3.97;1.60;;;11.30;85.30;;;;;;4151653;28;20049;-66
2023/04/27 08:09:37;;;;;;;3.27;1.10;;;11.20;81.10;;;;;;4146103;28;20046;-70
2023/04/27 08:11:38;;;;;;;5.53;2.93;;;11.40;83.90;;;;;;4146281;28;20099;-70
2023/04/27 08:13:40;;;;;;;2.90;1.20;;;11.70;82.50;;;;;;4160749;28;20037;-65
2023/04/27 08:15:41;;;;;;;5.93;1.53;;;11.90;82.90;;;;;;4162415;28;20060;-64
2023/04/27 08:17:42;;;;;;;7.10;1.63;;;12.20;82.90;;;;;;4161010;28;20095;-67
2023/04/27 08:19:43;;;;;;;4.47;1.33;;;12.40;82.10;;;;;;4162309;28;20029;-63
2023/04/27 08:21:44;;;;;;;5.23;1.60;;;12.10;80.70;;;;;;4146558;28;20512;-63
2023/04/27 08:23:45;;;;;;;2.67;1.30;;;11.90;80.30;;;;;;4145796;28;20042;-64
2023/04/27 08:25:47;;;;;;;4.10;1.80;;;11.90;81.10;;;;;;4147003;28;20453;-67
2023/04/27 08:27:48;;;;;;;3.07;1.33;;;11.90;80.40;;;;;;4146121;28;20030;-68
2023/04/27 08:29:49;;;;;;;3.67;1.30;;;11.90;80.40;;;;;;4146848;28;20096;-63
2023/04/27 08:31:50;;;;;;;3.73;1.30;;;12.00;79.80;;;;;;4149094;28;20037;-72
2023/04/27 08:33:52;;;;;;;3.03;1.40;;;11.90;78.30;;;;;;4154269;28;20025;-63
2023/04/27 08:35:54;;;;;;;11.17;1.97;;;11.90;79.10;;;;;;4145006;28;20379;-74
2023/04/27 08:37:55;;;;;;;8.53;2.23;;;12.10;79.30;;;;;;4136175;28;20017;-69
2023/04/27 08:39:56;;;;;;;6.77;1.87;;;11.90;76.40;;;;;;4161326;28;20080;-71
2023/04/27 08:41:59;;;;;;;8.90;2.10;;;11.50;76.40;;;;;;4163114;28;20094;-77
2023/04/27 08:44:00;;;;;;;4.20;1.50;;;11.00;76.40;;;;;;4161910;28;20116;-77
2023/04/27 08:46:02;;;;;;;3.80;1.77;;;10.50;76.40;;;;;;4162195;28;20099;-78
2023/04/27 08:48:03;;;;;;;5.33;1.43;;;10.40;78.10;;;;;;4161456;28;20813;-74
2023/04/27 08:50:05;;;;;;;4.50;1.50;;;10.30;78.90;;;;;;4154352;28;20076;-78
2023/04/27 08:52:11;;;;;;;4.97;1.70;;;10.30;79.80;;;;;;4145871;28;20014;-78
2023/04/27 08:54:12;;;;;;;8.30;1.40;;;10.40;78.80;;;;;;4149168;28;20583;-76
2023/04/27 08:56:13;;;;;;;2.33;1.30;;;10.50;78.40;;;;;;4150820;28;20076;-77
2023/04/27 08:58:15;;;;;;;5.23;1.07;;;10.80;76.10;;;;;;4145141;28;20030;-76
2023/04/27 09:00:17;;;;;;;2.20;1.10;;;11.10;77.00;;;;;;4160919;28;20091;-77
2023/04/27 09:02:20;;;;;;;4.60;1.23;;;11.40;76.60;;;;;;4143906;28;20096;-78
2023/04/27 09:04:21;;;;;;;5.63;1.43;;;11.70;75.40;;;;;;4154059;28;20057;-76
2023/04/27 09:06:32;;;;;;;2.10;1.37;;;11.70;75.20;;;;;;4156490;28;20033;-78
2023/04/27 09:08:50;;;;;;;6.27;0.97;;;11.50;74.50;;;;;;4168760;28;20119;-74
2023/04/27 09:10:53;;;;;;;7.53;1.23;;;11.40;73.40;;;;;;4147372;28;20034;-77
2023/04/27 09:12:58;;;;;;;5.53;1.50;;;11.00;75.20;;;;;;4145211;28;20076;-78
2023/04/27 09:15:05;;;;;;;3.60;1.20;;;10.70;76.50;;;;;;4145734;28;20083;-75
2023/04/27 09:17:06;;;;;;;6.80;1.10;;;10.60;77.50;;;;;;4149277;28;20518;-72
2023/04/27 09:19:07;;;;;;;2.03;1.23;;;10.50;77.90;;;;;;4162929;28;20045;-62
2023/04/27 09:21:09;;;;;;;4.10;1.50;;;10.40;77.70;;;;;;4161440;28;20103;-64
2023/04/27 09:23:10;;;;;;;6.33;1.70;;;10.30;78.50;;;;;;4156766;28;20624;-64
2023/04/27 09:25:24;;;;;;;4.63;1.70;;;10.20;78.90;;;;;;4148295;28;20100;-75
2023/04/27 09:27:25;;;;;;;3.70;1.20;;;10.20;79.50;;;;;;4152803;28;20100;-63
2023/04/27 09:29:37;;;;;;;2.10;1.03;;;10.20;79.10;;;;;;4145700;28;20037;-76
2023/04/27 09:31:38;;;;;;;3.07;1.30;;;10.00;78.30;;;;;;4144318;28;20076;-69
2023/04/27 09:33:39;;;;;;;6.40;1.83;;;10.00;79.00;;;;;;4144623;28;20099;-62
2023/04/27 09:35:44;;;;;;;4.73;2.50;;;10.10;79.50;;;;;;4155605;28;20013;-63
2023/04/27 09:37:45;;;;;;;2.47;1.40;;;10.20;79.30;;;;;;4176996;28;20033;-65
2023/04/27 09:39:48;;;;;;;4.93;1.70;;;10.20;79.10;;;;;;4177347;28;20041;-64
2023/04/27 09:41:49;;;;;;;3.00;1.20;;;10.20;78.70;;;;;;4155682;28;20025;-68
2023/04/27 09:43:53;;;;;;;5.10;1.23;;;10.10;78.50;;;;;;4157482;28;20103;-62
2023/04/27 09:45:55;;;;;;;6.60;1.83;;;10.00;78.50;;;;;;4150754;28;20045;-71
2023/04/27 09:47:57;;;;;;;4.73;1.37;;;10.10;78.70;;;;;;4155315;28;20026;-73
2023/04/27 09:50:00;;;;;;;4.07;1.90;;;10.00;77.90;;;;;;4143482;28;20451;-65
2023/04/27 09:52:01;;;;;;;5.10;1.50;;;10.10;78.30;;;;;;4148513;28;20053;-73
2023/04/27 09:54:03;;;;;;;5.30;1.23;;;10.10;77.90;;;;;;4158816;28;20033;-74
2023/04/27 09:56:24;;;;;;;3.00;1.20;;;10.10;78.30;;;;;;4145739;28;20038;-66
2023/04/27 09:58:56;;;;;;;3.33;1.53;;;9.90;76.90;;;;;;4133268;28;20076;-73
2023/04/27 10:01:26;;;;;;;2.87;1.10;;;10.00;78.70;;;;;;4158375;28;20583;-63
2023/04/27 10:03:27;;;;;;;4.93;1.40;;;10.00;77.90;;;;;;4156303;28;20045;-65
2023/04/27 10:06:03;;;;;;;3.80;1.37;;;10.10;78.50;;;;;;4153855;28;20544;-70
2023/04/27 10:08:05;;;;;;;4.63;1.73;;;10.20;77.30;;;;;;4140456;28;20038;-76
2023/04/27 10:10:17;;;;;;;3.67;1.47;;;10.10;77.80;;;;;;4154714;28;20064;-72
2023/04/27 10:12:20;;;;;;;8.10;1.60;;;10.10;77.00;;;;;;4159756;28;20486;-66
2023/04/27 10:14:23;;;;;;;4.47;1.00;;;10.10;77.50;;;;;;4155314;28;20466;-68
2023/04/27 10:16:24;;;;;;;2.87;1.40;;;10.20;76.80;;;;;;4143023;28;20059;-75
2023/04/27 10:18:29;;;;;;;3.13;1.20;;;10.30;76.50;;;;;;4160568;28;20057;-76
2023/04/27 10:20:35;;;;;;;8.17;1.90;;;10.60;76.10;;;;;;4147232;28;20119;-74
2023/04/27 10:22:42;;;;;;;12.03;2.50;;;10.70;76.20;;;;;;4146006;28;20053;-75
2023/04/27 10:24:48;;;;;;;8.40;2.07;;;10.80;76.40;;;;;;4143173;28;20046;-78
2023/04/27 10:26:50;;;;;;;5.83;1.37;;;10.90;75.90;;;;;;4145045;28;20034;-68
2023/04/27 10:29:08;;;;;;;6.57;1.77;;;10.80;75.30;;;;;;4143634;28;20140;-70
2023/04/27 10:31:10;;;;;;;4.53;2.17;;;10.70;74.00;;;;;;4146128;28;20398;-73
2023/04/27 10:33:16;;;;;;;4.93;1.50;;;10.60;75.30;;;;;;4159714;28;20107;-73
2023/04/27 10:35:19;;;;;;;3.97;1.20;;;10.50;75.30;;;;;;4160808;28;20045;-71
2023/04/27 10:37:24;;;;;;;4.30;1.30;;;10.50;76.20;;;;;;4150052;28;20022;-71
2023/04/27 10:39:35;;;;;;;3.73;1.37;;;10.60;76.30;;;;;;4145188;28;20034;-71